createdAt,value
2023-10-23T00:03:05.081Z,4.53
2023-10-23T00:05:45.679Z,4.78
2023-10-23T00:08:12.868Z,4.10
2023-10-23T00:10:39.903Z,3.80
2023-10-23T00:13:07.024Z,3.33
2023-10-23T00:15:33.998Z,2.78
2023-10-23T00:18:01.327Z,4.05
2023-10-23T00:20:28.388Z,3.30
2023-10-23T00:22:55.521Z,4.32
2023-10-23T00:25:43.073Z,4.78
2023-10-23T00:28:23.613Z,4.38
2023-10-23T00:30:50.699Z,4.30
2023-10-23T00:33:17.850Z,4.78
2023-10-23T00:35:44.963Z,3.50
2023-10-23T00:38:11.942Z,4.47
2023-10-23T00:40:39.593Z,5.15
2023-10-23T00:43:24.676Z,3.03
2023-10-23T00:45:54.882Z,4.10
2023-10-23T00:48:24.183Z,3.85
2023-10-23T00:50:52.577Z,3.35
2023-10-23T00:53:21.552Z,3.25
2023-10-23T00:55:48.870Z,3.80
2023-10-23T00:58:16.447Z,4.05
2023-10-23T01:01:04.165Z,3.97
2023-10-23T01:03:44.878Z,3.70
2023-10-23T01:06:14.361Z,4.85
2023-10-23T01:08:42.989Z,5.13
2023-10-23T01:11:30.136Z,5.40
2023-10-23T01:14:31.098Z,4.50
2023-10-23T01:17:32.124Z,3.17
2023-10-23T01:20:15.579Z,3.92
2023-10-23T01:22:42.510Z,5.18
2023-10-23T01:25:18.737Z,5.90
2023-10-23T01:27:45.874Z,5.15
2023-10-23T01:30:12.873Z,6.15
2023-10-23T01:32:39.958Z,4.75
2023-10-23T01:35:07.212Z,5.13
2023-10-23T01:37:34.254Z,6.80
2023-10-23T01:40:01.278Z,6.60
2023-10-23T01:42:48.158Z,7.07
2023-10-23T01:45:49.245Z,6.05
2023-10-23T01:48:29.878Z,5.13
2023-10-23T01:50:56.926Z,5.18
2023-10-23T01:53:24.706Z,4.38
2023-10-23T01:55:51.693Z,5.43
2023-10-23T01:58:18.656Z,5.65
2023-10-23T02:01:06.246Z,5.28
2023-10-23T02:04:07.317Z,4.95
2023-10-23T02:07:08.117Z,6.35
2023-10-23T02:09:48.725Z,7.10
2023-10-23T02:12:15.787Z,5.82
2023-10-23T02:14:42.737Z,6.03
2023-10-23T02:17:09.902Z,5.07
2023-10-23T02:19:37.470Z,4.97
2023-10-23T02:22:04.657Z,5.72
2023-10-23T02:24:31.616Z,5.45
2023-10-23T02:26:58.673Z,6.45
2023-10-23T02:29:25.633Z,6.30
2023-10-23T02:31:52.867Z,4.85
2023-10-23T02:34:19.822Z,5.43
2023-10-23T02:36:47.473Z,6.15
2023-10-23T02:39:16.709Z,7.07
2023-10-23T02:41:43.972Z,5.28
2023-10-23T02:44:12.194Z,5.57
2023-10-23T02:46:42.373Z,6.15
2023-10-23T02:49:43.154Z,6.60
2023-10-23T02:52:23.835Z,5.97
2023-10-23T02:54:52.106Z,6.28
2023-10-23T02:57:19.275Z,6.25
2023-10-23T02:59:59.177Z,5.00
2023-10-23T03:03:00.218Z,5.13
2023-10-23T03:05:40.892Z,4.55
2023-10-23T03:08:08.575Z,4.45
2023-10-23T03:10:35.938Z,5.47
2023-10-23T03:13:04.197Z,5.18
2023-10-23T03:15:31.263Z,5.40
2023-10-23T03:17:58.667Z,6.05
2023-10-23T03:20:25.712Z,5.40
2023-10-23T03:22:52.700Z,5.00
2023-10-23T03:25:19.894Z,4.90
2023-10-23T03:27:47.453Z,5.15
2023-10-23T03:30:14.739Z,5.63
2023-10-23T03:32:41.732Z,6.18
2023-10-23T03:35:29.153Z,5.93
2023-10-23T03:38:31.033Z,5.57
2023-10-23T03:41:11.816Z,5.40
2023-10-23T03:43:38.802Z,5.38
2023-10-23T03:46:06.563Z,5.10
2023-10-23T03:48:37.296Z,5.68
2023-10-23T03:51:05.010Z,5.78
2023-10-23T03:53:32.121Z,6.07
2023-10-23T03:55:59.140Z,6.93
2023-10-23T03:58:26.608Z,6.25
2023-10-23T04:01:14.309Z,6.07
2023-10-23T04:04:16.425Z,6.85
2023-10-23T04:07:17.178Z,6.00
2023-10-23T04:09:57.815Z,5.80
2023-10-23T04:12:24.979Z,5.63
2023-10-23T04:14:52.019Z,5.80
2023-10-23T04:17:19.066Z,6.43
2023-10-23T04:19:49.309Z,6.13
2023-10-23T04:22:16.328Z,5.63
2023-10-23T04:25:03.264Z,6.78
2023-10-23T04:27:44.314Z,6.07
2023-10-23T04:30:12.287Z,5.78
2023-10-23T04:32:39.307Z,5.63
2023-10-23T04:35:06.562Z,6.40
2023-10-23T04:37:33.576Z,5.40
2023-10-23T04:40:00.562Z,6.55
2023-10-23T04:42:27.606Z,5.82
2023-10-23T04:44:54.818Z,6.60
2023-10-23T04:47:21.763Z,5.53
2023-10-23T04:49:49.319Z,5.22
2023-10-23T04:52:18.024Z,4.93
2023-10-23T04:54:45.275Z,5.35
2023-10-23T04:57:12.470Z,5.78
2023-10-23T04:59:59.284Z,6.28
2023-10-23T05:03:00.244Z,6.63
2023-10-23T05:05:48.348Z,7.22
2023-10-23T05:08:18.490Z,6.25
2023-10-23T05:11:07.273Z,7.75
2023-10-23T05:14:08.320Z,5.63
2023-10-23T05:17:09.270Z,7.75
2023-10-23T05:19:49.961Z,7.05
2023-10-23T05:22:17.140Z,6.40
2023-10-23T05:24:47.917Z,6.82
2023-10-23T05:27:15.932Z,6.65
2023-10-23T05:29:43.255Z,7.78
2023-10-23T05:32:10.865Z,7.57
2023-10-23T05:34:37.841Z,7.03
2023-10-23T05:37:05.181Z,6.90
2023-10-23T05:39:32.792Z,6.43
2023-10-23T05:42:20.301Z,7.47
2023-10-23T05:45:21.286Z,5.97
2023-10-23T05:47:53.988Z,6.65
2023-10-23T05:50:20.973Z,6.70
2023-10-23T05:52:48.452Z,8.13
2023-10-23T05:55:15.715Z,8.70
2023-10-23T05:57:42.809Z,8.32
2023-10-23T06:00:30.412Z,9.57
2023-10-23T06:03:31.526Z,8.27
2023-10-23T06:06:06.238Z,9.05
2023-10-23T06:08:33.377Z,8.63
2023-10-23T06:11:00.966Z,9.63
2023-10-23T06:13:28.418Z,11.00
2023-10-23T06:16:04.228Z,9.95
2023-10-23T06:18:36.223Z,11.07
2023-10-23T06:21:23.323Z,11.57
2023-10-23T06:24:24.327Z,10.48
2023-10-23T06:27:25.347Z,11.20
2023-10-23T06:30:06.685Z,11.82
2023-10-23T06:32:36.786Z,11.55
2023-10-23T06:35:05.624Z,10.63
2023-10-23T06:37:34.038Z,10.75
2023-10-23T06:40:01.019Z,10.80
2023-10-23T06:42:28.224Z,9.57
2023-10-23T06:44:55.706Z,9.10
2023-10-23T06:47:22.734Z,10.05
2023-10-23T06:49:49.801Z,8.88
2023-10-23T06:52:16.933Z,8.55
2023-10-23T06:54:43.872Z,9.20
2023-10-23T06:57:11.030Z,8.98
2023-10-23T06:59:59.380Z,9.80
2023-10-23T07:03:03.402Z,7.45
2023-10-23T07:05:44.616Z,8.27
2023-10-23T07:08:11.767Z,8.57
2023-10-23T07:10:59.555Z,7.20
2023-10-23T07:14:00.328Z,7.32
2023-10-23T07:17:01.364Z,7.38
2023-10-23T07:20:03.338Z,7.13
2023-10-23T07:23:04.340Z,7.32
2023-10-23T07:26:20.456Z,7.55
2023-10-23T07:29:01.085Z,7.38
2023-10-23T07:31:30.989Z,7.70
2023-10-23T07:33:59.113Z,7.38
2023-10-23T07:36:26.254Z,7.72
2023-10-23T07:38:56.498Z,7.15
2023-10-23T07:41:43.307Z,4.97
2023-10-23T07:44:44.384Z,5.47
2023-10-23T07:47:24.981Z,5.15
2023-10-23T07:49:51.970Z,4.78
2023-10-23T07:52:39.489Z,4.93
2023-10-23T07:55:40.285Z,5.25
2023-10-23T07:58:41.326Z,4.22
2023-10-23T08:01:35.388Z,5.00
2023-10-23T08:04:36.567Z,6.38
2023-10-23T08:07:37.347Z,5.03
2023-10-23T08:10:38.294Z,5.60
2023-10-23T08:13:18.940Z,4.75
2023-10-23T08:15:46.184Z,4.32
2023-10-23T08:18:25.926Z,3.88
2023-10-23T08:21:00.412Z,3.08
2023-10-23T08:23:27.475Z,4.03
2023-10-23T08:25:54.519Z,4.97
2023-10-23T08:28:22.356Z,4.35
2023-10-23T08:30:49.508Z,4.07
2023-10-23T08:33:37.457Z,3.92
2023-10-23T08:36:38.472Z,4.30
2023-10-23T08:39:20.917Z,3.33
2023-10-23T08:41:50.056Z,3.63
2023-10-23T08:44:20.349Z,4.13
2023-10-23T08:46:47.594Z,4.07
2023-10-23T08:49:35.361Z,2.50
2023-10-23T08:52:21.474Z,2.63
2023-10-23T08:54:51.499Z,3.28
2023-10-23T08:57:21.249Z,2.90
2023-10-23T09:00:08.431Z,3.67
2023-10-23T09:03:09.382Z,3.03
2023-10-23T09:06:11.559Z,3.47
2023-10-23T09:09:13.439Z,3.28
2023-10-23T09:12:15.371Z,3.63
2023-10-23T09:14:56.038Z,3.45
2023-10-23T09:19:51.476Z,4.30
2023-10-23T09:22:18.585Z,3.85
2023-10-23T09:24:46.817Z,4.15
2023-10-23T09:27:13.855Z,5.10
2023-10-23T09:29:41.363Z,10.38
2023-10-23T09:32:08.491Z,11.43
2023-10-23T09:34:42.288Z,7.18
2023-10-23T09:37:29.726Z,6.28
2023-10-23T09:40:30.369Z,5.07
2023-10-23T09:43:33.440Z,6.82
2023-10-23T09:46:14.202Z,7.00
2023-10-23T09:48:45.813Z,7.10
2023-10-23T09:51:17.545Z,5.80
2023-10-23T09:53:49.996Z,6.32
2023-10-23T09:56:22.058Z,6.03
2023-10-23T09:59:14.365Z,6.68
2023-10-23T10:02:16.578Z,5.70
2023-10-23T10:05:21.453Z,5.32
2023-10-23T10:08:25.391Z,7.00
2023-10-23T10:11:20.488Z,5.25
2023-10-23T10:14:01.262Z,4.72
2023-10-23T10:16:28.623Z,5.35
2023-10-23T10:18:55.838Z,6.15
2023-10-23T10:21:25.080Z,4.70
2023-10-23T10:24:12.759Z,4.93
2023-10-23T10:27:15.484Z,5.60
2023-10-23T10:29:56.137Z,5.25
2023-10-23T10:32:26.709Z,5.18
2023-10-23T10:35:18.501Z,5.20
2023-10-23T10:38:00.668Z,7.75
2023-10-23T10:40:28.017Z,7.13
2023-10-23T10:42:56.650Z,7.93
2023-10-23T10:45:23.607Z,8.30
2023-10-23T10:47:54.031Z,8.27
2023-10-23T10:50:54.422Z,7.93
2023-10-23T10:53:55.452Z,8.57
2023-10-23T10:56:57.498Z,9.63
2023-10-23T10:59:58.445Z,11.48
2023-10-23T11:02:59.568Z,10.85
2023-10-23T11:06:08.702Z,12.18
2023-10-23T11:08:49.055Z,12.50
2023-10-23T11:11:17.032Z,12.50
2023-10-23T11:14:04.444Z,13.10
2023-10-23T11:16:45.201Z,12.55
2023-10-23T11:19:12.784Z,9.68
2023-10-23T11:21:39.932Z,9.88
2023-10-23T11:24:08.082Z,10.15
2023-10-23T11:26:35.156Z,9.18
2023-10-23T11:29:02.561Z,8.60
2023-10-23T11:31:29.635Z,10.07
2023-10-23T11:34:00.289Z,9.23
2023-10-23T11:36:34.211Z,9.55
2023-10-23T11:39:02.834Z,8.13
2023-10-23T11:41:29.873Z,7.50
2023-10-23T11:44:01.651Z,8.77
2023-10-23T11:46:29.946Z,6.50
2023-10-23T11:48:57.203Z,7.55
2023-10-23T11:51:24.730Z,8.18
2023-10-23T11:53:51.861Z,6.15
2023-10-23T11:56:18.986Z,7.38
2023-10-23T11:59:06.513Z,6.88
2023-10-23T12:02:08.478Z,8.57
2023-10-23T12:05:09.482Z,8.18
2023-10-23T12:07:57.500Z,8.38
2023-10-23T12:10:26.814Z,6.70
2023-10-23T12:12:55.174Z,7.63
2023-10-23T12:15:24.687Z,6.63
2023-10-23T12:17:52.509Z,7.15
2023-10-23T12:20:23.162Z,6.63
2023-10-23T12:22:51.782Z,6.80
2023-10-23T12:25:18.993Z,6.65
2023-10-23T12:27:47.108Z,7.35
2023-10-23T12:30:23.628Z,5.68
2023-10-23T12:33:15.215Z,6.50
2023-10-23T12:35:41.361Z,6.88
2023-10-23T12:38:08.936Z,6.47
2023-10-23T12:40:37.550Z,7.07
2023-10-23T12:43:05.776Z,6.25
2023-10-23T12:45:33.274Z,7.10
2023-10-23T12:48:20.534Z,7.30
2023-10-23T12:51:21.532Z,6.90
2023-10-23T12:54:22.488Z,5.97
2023-10-23T12:57:23.495Z,5.82
2023-10-23T13:00:24.540Z,7.22
2023-10-23T13:03:25.553Z,5.75
2023-10-23T13:06:08.134Z,6.53
2023-10-23T13:08:35.183Z,5.47
2023-10-23T13:11:22.501Z,6.60
2023-10-23T13:14:23.599Z,6.72
2023-10-23T13:17:24.821Z,6.35
2023-10-23T13:21:27.913Z,5.95
2023-10-23T13:22:58.678Z,5.63
2023-10-23T13:25:25.992Z,6.30
2023-10-23T13:27:53.021Z,6.07
2023-10-23T13:30:20.056Z,5.30
2023-10-23T13:32:47.173Z,5.70
2023-10-23T13:35:34.530Z,6.38
2023-10-23T13:38:35.588Z,6.45
2023-10-23T13:41:16.039Z,5.93
2023-10-23T13:43:43.064Z,5.22
2023-10-23T13:46:10.341Z,4.97
2023-10-23T13:48:37.491Z,5.05
2023-10-23T13:51:24.536Z,5.30
2023-10-23T13:54:25.544Z,5.38
2023-10-23T13:57:06.557Z,4.45
2023-10-23T13:59:54.555Z,5.10
2023-10-23T14:03:05.636Z,5.60
2023-10-23T14:06:06.868Z,5.03
2023-10-23T14:09:41.296Z,5.45
2023-10-23T14:12:28.553Z,5.50
2023-10-23T14:15:29.575Z,5.50
2023-10-23T14:18:11.081Z,5.45
2023-10-23T14:20:39.472Z,5.75
2023-10-23T14:23:06.664Z,6.53
2023-10-23T14:26:08.725Z,5.88
2023-10-23T14:28:49.260Z,6.70
2023-10-23T14:31:16.459Z,6.18
2023-10-23T14:33:43.837Z,5.05
2023-10-23T14:36:14.658Z,6.80
2023-10-23T14:38:43.020Z,6.93
2023-10-23T14:41:10.184Z,6.28
2023-10-23T14:43:37.394Z,5.80
2023-10-23T14:46:04.463Z,6.78
2023-10-23T14:48:52.620Z,5.85
2023-10-23T14:51:33.329Z,6.40
2023-10-23T14:54:20.636Z,5.57
2023-10-23T14:57:03.893Z,5.05
2023-10-23T14:59:50.593Z,10.35
2023-10-23T15:02:53.661Z,36.17
2023-10-23T15:05:54.960Z,12.48
2023-10-23T15:09:13.693Z,7.13
2023-10-23T15:12:15.984Z,6.68
2023-10-23T15:15:16.637Z,6.07
2023-10-23T15:17:57.200Z,6.45
2023-10-23T15:20:27.886Z,7.15
2023-10-23T15:22:54.840Z,6.72
2023-10-23T15:25:21.979Z,6.63
2023-10-23T15:27:50.695Z,5.13
2023-10-23T15:30:18.006Z,7.68
2023-10-23T15:32:45.068Z,7.35
2023-10-23T15:35:12.155Z,6.93
2023-10-23T15:37:39.254Z,7.03
2023-10-23T15:40:07.397Z,8.32
2023-10-23T15:42:34.407Z,7.35
2023-10-23T15:45:01.580Z,7.68
2023-10-23T15:47:48.795Z,8.48
2023-10-23T15:50:50.557Z,8.00
2023-10-23T15:53:51.659Z,9.60
2023-10-23T15:56:53.788Z,8.10
2023-10-23T15:59:54.663Z,7.15
2023-10-23T16:02:55.777Z,7.45
2023-10-23T16:05:36.506Z,7.30
2023-10-23T16:08:06.057Z,8.75
2023-10-23T16:10:33.874Z,7.63
2023-10-23T16:13:02.499Z,9.13
2023-10-23T16:15:29.590Z,6.20
2023-10-23T16:18:00.479Z,8.23
2023-10-23T16:20:27.502Z,9.25
2023-10-23T16:22:54.710Z,12.63
2023-10-23T16:25:21.896Z,13.10
2023-10-23T16:28:08.676Z,12.40
2023-10-23T16:31:10.100Z,15.68
2023-10-23T16:33:50.516Z,15.27
2023-10-23T16:36:18.577Z,14.63
2023-10-23T16:38:45.610Z,15.30
2023-10-23T16:41:12.618Z,16.13
2023-10-23T16:43:59.724Z,17.50
2023-10-23T16:47:01.703Z,17.10
2023-10-23T16:50:04.649Z,18.75
2023-10-23T16:52:46.291Z,18.35
2023-10-23T16:55:13.309Z,18.52
2023-10-23T16:58:00.694Z,21.15
2023-10-23T17:01:01.847Z,16.70
2023-10-23T17:04:02.771Z,17.50
2023-10-23T17:07:03.699Z,18.75
2023-10-23T17:10:03.439Z,19.00
2023-10-23T17:12:30.576Z,18.83
2023-10-23T17:15:17.733Z,17.00
2023-10-23T17:18:16.732Z,17.23
2023-10-23T17:20:45.752Z,16.55
2023-10-23T17:23:12.915Z,15.05
2023-10-23T17:25:41.607Z,18.88
2023-10-23T17:28:11.596Z,18.33
2023-10-23T17:30:58.739Z,23.15
2023-10-23T17:33:59.714Z,17.48
2023-10-23T17:37:01.850Z,13.88
2023-10-23T17:39:42.516Z,11.38
2023-10-23T17:42:09.849Z,8.48
2023-10-23T17:44:36.946Z,6.75
2023-10-23T17:47:05.009Z,4.65
2023-10-23T17:49:32.294Z,5.43
2023-10-23T17:51:59.521Z,6.22
2023-10-23T17:54:26.624Z,5.47
2023-10-23T17:56:54.157Z,5.13
2023-10-23T17:59:41.866Z,4.38
2023-10-23T18:02:43.010Z,5.10
2023-10-23T18:05:43.841Z,6.00
2023-10-23T18:08:24.425Z,4.60
2023-10-23T18:10:51.405Z,4.75
2023-10-23T18:13:18.908Z,5.13
2023-10-23T18:15:45.968Z,8.52
2023-10-23T18:18:13.309Z,4.93
2023-10-23T18:20:40.508Z,6.35
2023-10-23T18:23:07.528Z,5.90
2023-10-23T18:25:34.555Z,5.90
2023-10-23T18:28:01.658Z,5.45
2023-10-23T18:30:48.741Z,4.88
2023-10-23T18:33:49.760Z,5.72
2023-10-23T18:36:50.813Z,7.85
2023-10-23T18:39:31.383Z,5.82
2023-10-23T18:41:58.865Z,5.10
2023-10-23T18:44:28.778Z,6.75
2023-10-23T18:46:55.854Z,5.90
2023-10-23T18:49:22.959Z,15.30
2023-10-23T18:51:50.350Z,35.88
2023-10-23T18:54:19.469Z,21.83
2023-10-23T18:56:47.054Z,11.60
2023-10-23T18:59:34.357Z,6.07
2023-10-23T19:02:37.253Z,5.45
2023-10-23T19:05:42.790Z,6.38
2023-10-23T19:08:26.443Z,6.05
2023-10-23T19:10:53.875Z,7.00
2023-10-23T19:13:21.766Z,5.85
2023-10-23T19:16:01.149Z,9.52
2023-10-23T19:18:34.579Z,15.25
2023-10-23T19:21:15.894Z,9.35
2023-10-23T19:23:43.942Z,11.45
2023-10-23T19:26:12.631Z,11.05
2023-10-23T19:29:00.163Z,9.43
2023-10-23T19:32:00.817Z,7.75
2023-10-23T19:34:41.576Z,5.72
2023-10-23T19:37:09.868Z,5.88
2023-10-23T19:39:38.763Z,6.43
2023-10-23T19:42:08.687Z,6.15
2023-10-23T19:44:38.533Z,6.15
2023-10-23T19:47:08.299Z,5.25
2023-10-23T19:49:35.693Z,7.45
2023-10-23T19:52:03.318Z,8.00
2023-10-23T19:54:37.411Z,12.25
2023-10-23T19:57:07.012Z,7.72
2023-10-23T19:59:53.892Z,7.43
2023-10-23T20:02:54.887Z,7.47
2023-10-23T20:05:58.931Z,7.35
2023-10-23T20:08:40.612Z,7.60
2023-10-23T20:11:07.692Z,7.32
2023-10-23T20:13:34.764Z,7.55
2023-10-23T20:16:04.343Z,7.07
2023-10-23T20:18:32.408Z,7.10
2023-10-23T20:20:59.659Z,6.28
2023-10-23T20:23:26.960Z,7.20
2023-10-23T20:26:13.850Z,6.72
2023-10-23T20:29:15.962Z,6.35
2023-10-23T20:32:16.934Z,4.32
2023-10-23T20:34:57.469Z,5.32
2023-10-23T20:37:24.508Z,6.78
2023-10-23T20:39:51.579Z,5.65
2023-10-23T20:42:18.854Z,6.95
2023-10-23T20:45:12.864Z,7.65
2023-10-23T20:47:53.704Z,7.28
2023-10-23T20:50:24.280Z,7.65
2023-10-23T20:52:51.572Z,6.93
2023-10-23T20:55:18.553Z,6.35
2023-10-23T20:57:45.619Z,6.57
2023-10-23T21:00:32.884Z,6.75
2023-10-23T21:03:33.856Z,8.07
2023-10-23T21:06:34.816Z,6.43
2023-10-23T21:09:15.814Z,5.85
2023-10-23T21:11:42.859Z,6.63
2023-10-23T21:14:10.788Z,5.57
2023-10-23T21:16:38.212Z,6.50
2023-10-23T21:19:05.920Z,6.10
2023-10-23T21:21:33.042Z,5.93
2023-10-23T21:24:00.136Z,6.18
2023-10-23T21:26:27.446Z,5.35
2023-10-23T21:28:54.433Z,7.43
2023-10-23T21:31:21.537Z,6.63
2023-10-23T21:33:48.680Z,6.78
2023-10-23T21:36:15.660Z,7.32
2023-10-23T21:38:42.660Z,6.82
2023-10-23T21:41:09.834Z,6.90
2023-10-23T21:43:56.840Z,6.43
2023-10-23T21:46:44.646Z,6.25
2023-10-23T21:49:11.790Z,6.60
2023-10-23T21:51:39.382Z,8.20
2023-10-23T21:54:07.858Z,10.02
2023-10-23T21:57:19.275Z,8.60
2023-10-23T21:59:43.848Z,8.07
2023-10-23T22:02:44.952Z,8.50
2023-10-23T22:05:45.843Z,7.72
2023-10-23T22:08:26.858Z,6.68
2023-10-23T22:10:54.048Z,6.40
2023-10-23T22:13:40.905Z,7.43
2023-10-23T22:16:22.643Z,7.53
2023-10-23T22:18:51.506Z,6.10
2023-10-23T22:21:18.585Z,6.22
2023-10-23T22:23:45.524Z,6.53
2023-10-23T22:26:32.876Z,6.38
2023-10-23T22:29:13.420Z,7.47
2023-10-23T22:31:40.422Z,6.72
2023-10-23T22:34:07.460Z,5.50
2023-10-23T22:36:34.526Z,6.50
2023-10-23T22:39:01.547Z,5.85
2023-10-23T22:41:28.640Z,5.90
2023-10-23T22:43:55.788Z,6.57
2023-10-23T22:46:22.853Z,6.85
2023-10-23T22:48:49.867Z,6.68
2023-10-23T22:51:17.693Z,6.03
2023-10-23T22:53:44.806Z,6.40
2023-10-23T22:56:14.495Z,6.82
2023-10-23T22:58:42.191Z,6.10
2023-10-23T23:01:28.993Z,6.32
2023-10-23T23:04:29.898Z,7.22
2023-10-23T23:07:31.965Z,5.32
2023-10-23T23:10:13.800Z,6.43
2023-10-23T23:13:00.901Z,7.97
2023-10-23T23:15:46.743Z,7.40
2023-10-23T23:18:19.064Z,8.15
2023-10-23T23:20:48.536Z,6.80
2023-10-23T23:23:15.503Z,7.20
2023-10-23T23:25:42.515Z,7.65
2023-10-23T23:28:09.545Z,6.45
2023-10-23T23:30:36.540Z,7.50
2023-10-23T23:33:03.756Z,7.47
2023-10-23T23:35:30.700Z,7.85
2023-10-23T23:37:57.751Z,7.22
2023-10-23T23:40:24.743Z,7.38
2023-10-23T23:43:11.987Z,6.43
2023-10-23T23:46:13.014Z,7.20
2023-10-23T23:48:53.553Z,7.38
2023-10-23T23:51:40.921Z,8.20
2023-10-23T23:54:42.281Z,8.52
2023-10-23T23:57:22.562Z,8.15
